Terminal Aerodrome Forecast
Issued by NWS

Home | Current Version | Previous Version | Text Only | Print | Product List | Glossary On
Versions: 1 2 3 4 5 6 7 8 9 10 11 12 13 14 15 16 17 18 19 20 21 22 23 24
000
FTUS45 KGJT 212333
TAFVEL
TAF
KVEL 212333Z 2200/2224 VRB05KT P6SM SKC
     FM221200 VRB04KT P6SM BKN120 BKN200
     FM221800 16005KT P6SM SCT080 OVC120=

USA.gov is the U.S. government's official web portal to all federal, state and local government web resources and services.